createdAt,value
2023-02-22T00:00:40.134Z,2.10
2023-02-22T00:01:07.770Z,2.12
2023-02-22T00:01:37.387Z,2.13
2023-02-22T00:02:12.683Z,2.13
2023-02-22T00:02:36.973Z,2.12
2023-02-22T00:02:59.294Z,2.12
2023-02-22T00:03:24.226Z,2.12
2023-02-22T00:03:50.057Z,2.11
2023-02-22T00:04:12.661Z,2.11
2023-02-22T00:04:34.985Z,2.11
2023-02-22T00:04:57.292Z,2.10
2023-02-22T00:05:24.253Z,2.10
2023-02-22T00:05:50.946Z,2.09
2023-02-22T00:06:16.138Z,2.09
2023-02-22T00:06:37.815Z,2.08
2023-02-22T00:07:00.728Z,2.08
2023-02-22T00:07:23.197Z,2.08
2023-02-22T00:07:48.059Z,2.08
2023-02-22T00:08:11.138Z,2.09
2023-02-22T00:08:34.510Z,2.10
2023-02-22T00:08:56.784Z,2.10
2023-02-22T00:09:20.838Z,2.11
2023-02-22T00:09:42.601Z,2.11
2023-02-22T00:10:08.576Z,2.13
2023-02-22T00:10:31.082Z,2.13
2023-02-22T00:10:52.758Z,2.14
2023-02-22T00:11:14.806Z,2.14
2023-02-22T00:11:38.066Z,2.15
2023-02-22T00:12:00.068Z,2.16
2023-02-22T00:12:21.784Z,2.17
2023-02-22T00:12:43.340Z,2.18
2023-02-22T00:13:07.149Z,2.18
2023-02-22T00:13:33.448Z,2.17
2023-02-22T00:13:56.581Z,2.16
2023-02-22T00:14:20.991Z,2.15
2023-02-22T00:14:42.624Z,2.14
2023-02-22T00:15:05.176Z,2.13
2023-02-22T00:15:27.579Z,2.13
2023-02-22T00:15:49.665Z,2.11
2023-02-22T00:16:15.886Z,2.11
2023-02-22T00:16:38.229Z,2.10
2023-02-22T00:17:00.090Z,2.10
2023-02-22T00:17:21.919Z,2.09
2023-02-22T00:17:44.239Z,2.08
2023-02-22T00:18:06.534Z,2.08
2023-02-22T00:18:28.393Z,2.07
2023-02-22T00:18:55.194Z,2.07
2023-02-22T00:19:21.471Z,2.08
2023-02-22T00:19:43.001Z,2.08
2023-02-22T00:20:06.586Z,2.09
2023-02-22T00:20:28.358Z,2.09
2023-02-22T00:20:50.043Z,2.10
2023-02-22T00:21:12.018Z,2.11
2023-02-22T00:21:34.690Z,2.12
2023-02-22T00:21:57.477Z,2.13
2023-02-22T00:22:20.079Z,2.13
2023-02-22T00:22:42.293Z,2.14
2023-02-22T00:23:06.521Z,2.15
2023-02-22T00:23:29.021Z,2.16
2023-02-22T00:23:54.032Z,2.17
2023-02-22T00:24:24.547Z,2.18
2023-02-22T00:24:49.671Z,2.18
2023-02-22T00:25:12.070Z,2.18
2023-02-22T00:25:33.699Z,2.18
2023-02-22T00:25:56.457Z,2.16
2023-02-22T00:26:18.975Z,2.16
2023-02-22T00:26:41.283Z,2.15
2023-02-22T00:27:03.037Z,2.14
2023-02-22T00:27:24.867Z,2.12
2023-02-22T00:27:53.098Z,2.12
2023-02-22T00:28:14.968Z,2.11
2023-02-22T00:28:37.140Z,2.10
2023-02-22T00:28:59.118Z,2.09
2023-02-22T00:29:22.747Z,2.09
2023-02-22T00:29:45.761Z,2.09
2023-02-22T00:30:08.804Z,2.09
2023-02-22T00:30:31.736Z,2.09
2023-02-22T00:30:59.228Z,2.10
2023-02-22T00:31:21.066Z,2.12
2023-02-22T00:31:45.581Z,2.12
2023-02-22T00:32:07.590Z,2.12
2023-02-22T00:32:30.637Z,2.13
2023-02-22T00:32:52.757Z,2.14
2023-02-22T00:33:14.605Z,2.15
2023-02-22T00:33:37.918Z,2.14
2023-02-22T00:34:00.042Z,2.15
2023-02-22T00:34:23.636Z,2.15
2023-02-22T00:34:45.627Z,2.15
2023-02-22T00:35:08.354Z,2.16
2023-02-22T00:35:30.488Z,2.16
2023-02-22T00:35:57.315Z,2.16
2023-02-22T00:36:20.660Z,2.15
2023-02-22T00:36:48.886Z,2.15
2023-02-22T00:37:10.857Z,2.15
2023-02-22T00:37:35.545Z,2.14
2023-02-22T00:37:58.107Z,2.13
2023-02-22T00:38:19.697Z,2.13
2023-02-22T00:38:41.843Z,2.12
2023-02-22T00:39:03.624Z,2.11
2023-02-22T00:39:25.418Z,2.09
2023-02-22T00:39:48.847Z,2.08
2023-02-22T00:40:10.811Z,2.07
2023-02-22T00:40:33.662Z,2.06
2023-02-22T00:41:00.155Z,2.04
2023-02-22T00:41:21.780Z,2.03
2023-02-22T00:41:45.705Z,2.03
2023-02-22T00:42:08.911Z,2.02
2023-02-22T00:42:30.801Z,2.02
2023-02-22T00:42:52.434Z,2.02
2023-02-22T00:43:14.185Z,2.02
2023-02-22T00:43:37.577Z,2.02
2023-02-22T00:43:59.265Z,2.02
2023-02-22T00:44:21.548Z,2.02
2023-02-22T00:44:43.726Z,1.98
2023-02-22T00:45:07.555Z,2.02
2023-02-22T00:45:31.951Z,2.02
2023-02-22T00:45:53.809Z,2.03
2023-02-22T00:46:16.172Z,2.04
2023-02-22T00:46:39.602Z,2.04
2023-02-22T00:47:01.287Z,2.04
2023-02-22T00:47:23.274Z,2.04
2023-02-22T00:47:45.265Z,2.04
2023-02-22T00:48:10.112Z,2.04
2023-02-22T00:48:32.239Z,2.03
2023-02-22T00:48:54.405Z,2.03
2023-02-22T00:49:16.391Z,2.02
2023-02-22T00:49:38.480Z,2.01
2023-02-22T00:50:00.390Z,2.00
2023-02-22T00:50:22.971Z,1.99
2023-02-22T00:50:45.170Z,1.98
2023-02-22T00:51:06.784Z,1.97
2023-02-22T00:51:28.673Z,1.95
2023-02-22T00:51:54.299Z,1.94
2023-02-22T00:52:19.153Z,1.93
2023-02-22T00:52:41.043Z,1.93
2023-02-22T00:53:06.926Z,1.92
2023-02-22T00:53:28.817Z,1.92
2023-02-22T00:53:51.305Z,1.92
2023-02-22T00:54:13.839Z,1.91
2023-02-22T00:54:36.231Z,1.92
2023-02-22T00:54:59.419Z,1.92
2023-02-22T00:55:24.781Z,1.92
2023-02-22T00:55:46.567Z,1.92
2023-02-22T00:56:08.255Z,1.92
2023-02-22T00:56:30.076Z,1.93
2023-02-22T00:56:52.029Z,1.93
2023-02-22T00:57:13.650Z,1.93
2023-02-22T00:57:35.305Z,1.94
2023-02-22T00:57:58.192Z,1.94
2023-02-22T00:58:19.875Z,1.94
2023-02-22T00:58:41.662Z,1.94
2023-02-22T00:59:03.651Z,1.94
2023-02-22T00:59:27.813Z,1.95
2023-02-22T00:59:51.617Z,1.95
2023-02-22T01:00:15.585Z,1.95
2023-02-22T01:00:39.074Z,1.95
2023-02-22T01:01:02.427Z,1.95
2023-02-22T01:01:24.874Z,1.94
2023-02-22T01:01:46.999Z,1.93
2023-02-22T01:02:09.940Z,1.94
2023-02-22T01:02:32.058Z,1.93
2023-02-22T01:02:55.405Z,1.93
2023-02-22T01:03:18.311Z,1.93
2023-02-22T01:03:40.812Z,1.93
2023-02-22T01:04:02.760Z,1.92
2023-02-22T01:04:26.224Z,1.91
2023-02-22T01:04:49.104Z,1.90
2023-02-22T01:05:15.771Z,1.89
2023-02-22T01:05:37.712Z,1.88
2023-02-22T01:05:59.500Z,1.87
2023-02-22T01:06:22.305Z,1.85
2023-02-22T01:06:46.236Z,1.84
2023-02-22T01:07:09.558Z,1.82
2023-02-22T01:07:31.953Z,1.82
2023-02-22T01:07:55.215Z,1.81
2023-02-22T01:08:17.290Z,1.81
2023-02-22T01:08:38.942Z,1.81
2023-02-22T01:09:01.749Z,1.82
2023-02-22T01:09:23.464Z,1.82
2023-02-22T01:09:45.420Z,1.82
2023-02-22T01:10:11.938Z,1.82
2023-02-22T01:10:35.840Z,1.82
2023-02-22T01:11:01.205Z,1.82
2023-02-22T01:11:23.271Z,1.82
2023-02-22T01:11:44.980Z,1.82
2023-02-22T01:12:07.685Z,1.83
2023-02-22T01:12:29.571Z,1.82
2023-02-22T01:12:51.870Z,1.82
2023-02-22T01:13:13.956Z,1.83
2023-02-22T01:13:37.717Z,1.83
2023-02-22T01:13:59.988Z,1.83
2023-02-22T01:14:23.241Z,1.83
2023-02-22T01:14:44.713Z,1.83
2023-02-22T01:15:09.780Z,1.83
2023-02-22T01:15:31.518Z,1.83
2023-02-22T01:15:56.168Z,1.82
2023-02-22T01:16:17.868Z,1.81
2023-02-22T01:16:43.882Z,1.82
2023-02-22T01:17:05.929Z,1.81
2023-02-22T01:17:30.463Z,1.80
2023-02-22T01:17:54.700Z,1.80
2023-02-22T01:18:16.690Z,1.80
2023-02-22T01:18:38.526Z,1.79
2023-02-22T01:19:00.870Z,1.77
2023-02-22T01:19:23.577Z,1.76
2023-02-22T01:19:45.265Z,1.75
2023-02-22T01:20:12.188Z,1.73
2023-02-22T01:20:34.565Z,1.71
2023-02-22T01:20:56.176Z,1.69
2023-02-22T01:21:18.086Z,1.68
2023-02-22T01:21:40.365Z,1.67
2023-02-22T01:22:04.808Z,1.65
2023-02-22T01:22:27.519Z,1.63
2023-02-22T01:22:49.590Z,1.62
2023-02-22T01:23:11.882Z,1.61
2023-02-22T01:23:33.538Z,1.60
2023-02-22T01:23:55.529Z,1.59
2023-02-22T01:24:17.820Z,1.58
2023-02-22T01:24:39.709Z,1.57
2023-02-22T01:25:01.501Z,1.55
2023-02-22T01:25:24.811Z,1.55
2023-02-22T01:25:46.481Z,1.54
2023-02-22T01:26:09.811Z,1.54
2023-02-22T01:26:32.119Z,1.53
2023-02-22T01:26:54.198Z,1.52
2023-02-22T01:27:16.913Z,1.51
2023-02-22T01:27:38.756Z,1.50
2023-02-22T01:28:00.885Z,1.49
2023-02-22T01:28:22.571Z,1.48
2023-02-22T01:28:45.269Z,1.47
2023-02-22T01:29:08.206Z,1.46
2023-02-22T01:29:30.066Z,1.44
2023-02-22T01:29:52.158Z,1.43
2023-02-22T01:30:13.971Z,1.42
2023-02-22T01:30:36.037Z,1.42
2023-02-22T01:30:58.502Z,1.41
2023-02-22T01:31:20.706Z,1.40
2023-02-22T01:31:45.937Z,1.38
2023-02-22T01:32:08.160Z,1.37
2023-02-22T01:32:30.176Z,1.36
2023-02-22T01:32:52.463Z,1.36
2023-02-22T01:33:15.080Z,1.35
2023-02-22T01:33:36.751Z,1.34
2023-02-22T01:33:58.589Z,1.34
2023-02-22T01:34:23.195Z,1.32
2023-02-22T01:34:45.932Z,1.31
2023-02-22T01:35:08.899Z,1.30
2023-02-22T01:35:31.712Z,1.28
2023-02-22T01:35:53.595Z,1.27
2023-02-22T01:36:16.507Z,1.25
2023-02-22T01:36:39.516Z,1.24
2023-02-22T01:37:01.301Z,1.22
2023-02-22T01:37:23.389Z,1.22
2023-02-22T01:37:45.277Z,1.20
2023-02-22T01:38:08.016Z,1.19
2023-02-22T01:38:29.931Z,1.18
2023-02-22T01:38:51.652Z,1.18
2023-02-22T01:39:13.181Z,1.18
2023-02-22T01:39:35.977Z,1.18
2023-02-22T01:39:58.133Z,1.20
2023-02-22T01:40:21.555Z,1.19
2023-02-22T01:40:43.951Z,1.19
2023-02-22T01:41:06.860Z,1.20
2023-02-22T01:41:28.746Z,1.20
2023-02-22T01:41:53.088Z,1.21
2023-02-22T01:42:16.171Z,1.22
2023-02-22T01:42:38.190Z,1.22
2023-02-22T01:43:00.906Z,1.22
2023-02-22T01:43:23.637Z,1.22
2023-02-22T01:43:45.389Z,1.22
2023-02-22T01:44:28.901Z,1.21
2023-02-22T01:45:13.028Z,1.17
2023-02-22T01:45:53.871Z,1.21
2023-02-22T01:46:20.524Z,1.19
2023-02-22T01:46:42.316Z,1.18
2023-02-22T01:47:04.609Z,1.17
2023-02-22T01:47:27.315Z,1.16
2023-02-22T01:47:48.978Z,1.16
2023-02-22T01:48:29.205Z,1.15
2023-02-22T01:48:59.776Z,1.14
2023-02-22T01:49:21.788Z,1.13
2023-02-22T01:49:47.535Z,1.13
2023-02-22T01:50:10.149Z,1.13
2023-02-22T01:50:33.390Z,1.13
2023-02-22T01:50:57.247Z,1.14
2023-02-22T01:51:20.198Z,1.14
2023-02-22T01:51:43.846Z,1.14
2023-02-22T01:52:08.264Z,1.15
2023-02-22T01:52:30.560Z,1.15
2023-02-22T01:52:52.753Z,1.15
2023-02-22T01:53:15.358Z,1.16
2023-02-22T01:53:40.105Z,1.16
2023-02-22T01:54:03.526Z,1.16
2023-02-22T01:54:27.665Z,1.16
2023-02-22T01:54:52.234Z,1.16
2023-02-22T01:55:13.892Z,1.15
2023-02-22T01:55:39.070Z,1.15
2023-02-22T01:56:01.380Z,1.16
2023-02-22T01:56:24.078Z,1.15
2023-02-22T01:56:50.146Z,1.15
2023-02-22T01:57:14.371Z,1.14
2023-02-22T01:57:36.773Z,1.12
2023-02-22T01:57:58.410Z,1.12
2023-02-22T01:58:22.513Z,1.10
2023-02-22T01:58:46.089Z,1.09
2023-02-22T01:59:09.023Z,1.08
2023-02-22T01:59:32.672Z,1.07
2023-02-22T01:59:55.565Z,1.06
2023-02-22T02:00:20.002Z,1.05
2023-02-22T02:00:41.596Z,1.05
2023-02-22T02:01:03.570Z,1.04
2023-02-22T02:01:25.456Z,1.02
2023-02-22T02:01:47.241Z,1.01
2023-02-22T02:02:09.024Z,1.00
2023-02-22T02:02:30.707Z,0.98
2023-02-22T02:03:02.319Z,0.98
2023-02-22T02:03:27.162Z,0.96
2023-02-22T02:03:49.994Z,0.95
2023-02-22T02:04:15.802Z,0.93
2023-02-22T02:04:43.200Z,0.92
2023-02-22T02:05:07.873Z,0.89
2023-02-22T02:05:34.701Z,0.88
2023-02-22T02:06:02.416Z,0.86
2023-02-22T02:06:24.484Z,0.85
2023-02-22T02:06:48.088Z,0.83
2023-02-22T02:07:11.143Z,0.82
2023-02-22T02:07:33.769Z,0.81
2023-02-22T02:07:55.429Z,0.79
2023-02-22T02:08:26.624Z,0.79
2023-02-22T02:08:54.643Z,0.78
2023-02-22T02:09:20.804Z,0.76
2023-02-22T02:09:49.038Z,0.75
2023-02-22T02:10:13.805Z,0.73
2023-02-22T02:10:35.694Z,0.70
2023-02-22T02:10:57.517Z,0.69
2023-02-22T02:11:21.002Z,0.68
2023-02-22T02:11:43.402Z,0.66
2023-02-22T02:12:09.306Z,0.64
2023-02-22T02:12:32.594Z,0.62
2023-02-22T02:12:55.093Z,0.61
2023-02-22T02:13:17.185Z,0.60
2023-02-22T02:13:38.964Z,0.58
2023-02-22T02:14:00.658Z,0.57
2023-02-22T02:14:23.777Z,0.56
2023-02-22T02:14:45.398Z,0.56
2023-02-22T02:15:24.723Z,0.56
2023-02-22T02:15:49.270Z,0.55
2023-02-22T02:16:10.849Z,0.55
2023-02-22T02:16:42.363Z,0.54
2023-02-22T02:17:06.544Z,0.55
2023-02-22T02:17:28.332Z,0.54
2023-02-22T02:17:50.857Z,0.54
2023-02-22T02:18:16.033Z,0.54
2023-02-22T02:18:37.923Z,0.54
2023-02-22T02:19:01.444Z,0.55
2023-02-22T02:19:30.531Z,0.55
2023-02-22T02:20:13.465Z,0.56
2023-02-22T02:20:36.695Z,0.56
2023-02-22T02:21:16.356Z,0.55
2023-02-22T02:21:59.011Z,0.55
2023-02-22T02:22:32.446Z,0.55
2023-02-22T02:22:56.788Z,0.54
2023-02-22T02:23:36.561Z,0.53
2023-02-22T02:24:05.075Z,0.53
2023-02-22T02:24:32.641Z,0.52
2023-02-22T02:25:10.345Z,0.51
2023-02-22T02:25:50.740Z,0.50
2023-02-22T02:26:12.736Z,0.50
2023-02-22T02:26:45.052Z,0.49
2023-02-22T02:27:17.575Z,0.49
2023-02-22T02:27:39.361Z,0.49
2023-02-22T02:28:05.031Z,0.48
2023-02-22T02:28:42.238Z,0.49
2023-02-22T02:29:12.866Z,0.49
2023-02-22T02:29:54.529Z,0.49
2023-02-22T02:30:45.405Z,0.50
2023-02-22T02:31:27.406Z,0.50
2023-02-22T02:31:54.328Z,0.50
2023-02-22T02:32:21.742Z,0.50
2023-02-22T02:32:46.482Z,0.51
2023-02-22T02:33:20.348Z,0.52
2023-02-22T02:33:42.844Z,0.52
2023-02-22T02:34:14.658Z,0.52
2023-02-22T02:34:36.649Z,0.54
2023-02-22T02:35:03.639Z,0.54
2023-02-22T02:35:25.529Z,0.55
2023-02-22T02:35:53.143Z,0.54
2023-02-22T02:36:23.314Z,0.54
2023-02-22T02:36:51.343Z,0.54
2023-02-22T02:37:21.612Z,0.54
2023-02-22T02:37:49.345Z,0.53
2023-02-22T02:38:29.556Z,0.52
2023-02-22T02:38:55.557Z,0.51
2023-02-22T02:39:19.838Z,0.50
2023-02-22T02:39:50.213Z,0.49
2023-02-22T02:40:11.841Z,0.49
2023-02-22T02:40:36.643Z,0.47
2023-02-22T02:41:07.126Z,0.47
2023-02-22T02:41:30.449Z,0.46
2023-02-22T02:41:52.340Z,0.46
2023-02-22T02:42:16.775Z,0.45
2023-02-22T02:42:58.297Z,0.46
2023-02-22T02:43:22.535Z,0.46
2023-02-22T02:43:54.951Z,0.47
2023-02-22T02:44:22.061Z,0.47
2023-02-22T02:44:45.786Z,0.47
2023-02-22T02:45:09.514Z,0.47
2023-02-22T02:45:39.587Z,0.46
2023-02-22T02:46:01.266Z,0.46
2023-02-22T02:46:29.081Z,0.46
2023-02-22T02:46:51.638Z,0.45
2023-02-22T02:47:19.319Z,0.45
2023-02-22T02:47:44.769Z,0.46
2023-02-22T02:48:06.659Z,0.46
2023-02-22T02:48:28.959Z,0.46
2023-02-22T02:49:00.904Z,0.46
2023-02-22T02:49:25.715Z,0.44
2023-02-22T02:49:56.497Z,0.43
2023-02-22T02:50:19.714Z,0.42
2023-02-22T02:50:46.543Z,0.41
2023-02-22T02:51:10.049Z,0.39
2023-02-22T02:51:33.555Z,0.39
2023-02-22T02:51:55.389Z,0.38
2023-02-22T02:52:17.948Z,0.37
2023-02-22T02:52:42.489Z,0.36
2023-02-22T02:53:05.322Z,0.35
2023-02-22T02:53:30.800Z,0.34
2023-02-22T02:53:52.857Z,0.32
2023-02-22T02:54:14.876Z,0.31
2023-02-22T02:54:36.525Z,0.31
2023-02-22T02:54:58.209Z,0.31
2023-02-22T02:55:20.104Z,0.30
2023-02-22T02:55:42.087Z,0.31
2023-02-22T02:56:04.076Z,0.30
2023-02-22T02:56:25.860Z,0.31
2023-02-22T02:56:47.645Z,0.31
2023-02-22T02:57:09.436Z,0.31
2023-02-22T02:57:31.454Z,0.32
2023-02-22T02:57:55.250Z,0.32
2023-02-22T02:58:18.187Z,0.32
2023-02-22T02:58:48.558Z,0.33
2023-02-22T02:59:29.190Z,0.32
2023-02-22T02:59:51.442Z,0.32
2023-02-22T03:00:23.489Z,0.32
2023-02-22T03:00:45.434Z,0.32
2023-02-22T03:01:07.420Z,0.31
2023-02-22T03:01:35.011Z,0.29
2023-02-22T03:02:10.973Z,0.28
2023-02-22T03:02:45.335Z,0.26
2023-02-22T03:03:26.041Z,0.24
2023-02-22T03:03:55.568Z,0.23
2023-02-22T03:04:19.831Z,0.21
2023-02-22T03:04:53.648Z,0.19
2023-02-22T03:05:26.991Z,0.18
2023-02-22T03:06:08.003Z,0.17
2023-02-22T03:06:35.726Z,0.16
2023-02-22T03:07:13.065Z,0.17
2023-02-22T03:07:37.839Z,0.17
2023-02-22T03:08:25.973Z,0.18
2023-02-22T03:08:51.038Z,0.18
2023-02-22T03:09:15.702Z,0.18
2023-02-22T03:09:37.467Z,0.18
2023-02-22T03:10:12.646Z,0.19
2023-02-22T03:10:38.169Z,0.19
2023-02-22T03:11:14.501Z,0.20
2023-02-22T03:11:40.831Z,0.21
2023-02-22T03:12:07.529Z,0.22
2023-02-22T03:12:41.248Z,0.22
2023-02-22T03:13:21.676Z,0.22
2023-02-22T03:13:51.543Z,0.20
2023-02-22T03:14:20.812Z,0.18
2023-02-22T03:14:45.614Z,0.17
2023-02-22T03:15:12.314Z,0.16
2023-02-22T03:15:46.243Z,0.15
2023-02-22T03:16:08.716Z,0.13
2023-02-22T03:16:33.157Z,0.13
2023-02-22T03:17:01.060Z,0.12
2023-02-22T03:17:26.186Z,0.11
2023-02-22T03:17:48.311Z,0.12
2023-02-22T03:18:33.485Z,0.11
2023-02-22T03:19:04.121Z,0.12
2023-02-22T03:19:28.851Z,0.12
2023-02-22T03:19:52.269Z,0.14
2023-02-22T03:20:38.567Z,0.14
2023-02-22T03:21:03.826Z,0.16
2023-02-22T03:21:33.701Z,0.17
2023-02-22T03:22:01.814Z,0.17
2023-02-22T03:22:47.637Z,0.19
2023-02-22T03:23:20.668Z,0.20
2023-02-22T03:23:47.468Z,0.21
2023-02-22T03:24:11.092Z,0.21
2023-02-22T03:24:36.457Z,0.22
2023-02-22T03:25:06.558Z,0.22
2023-02-22T03:25:39.280Z,0.23
2023-02-22T03:26:03.185Z,0.23
2023-02-22T03:26:28.789Z,0.22
2023-02-22T03:27:02.403Z,0.22
2023-02-22T03:27:27.566Z,0.21
2023-02-22T03:27:53.845Z,0.20
2023-02-22T03:28:16.562Z,0.18
2023-02-22T03:28:40.512Z,0.17
2023-02-22T03:29:04.620Z,0.17
2023-02-22T03:29:27.939Z,0.16
2023-02-22T03:29:52.520Z,0.15
2023-02-22T03:30:24.834Z,0.14
2023-02-22T03:30:55.443Z,0.14
2023-02-22T03:31:28.335Z,0.14
2023-02-22T03:31:51.725Z,0.14
2023-02-22T03:32:20.153Z,0.14
2023-02-22T03:32:43.284Z,0.15
2023-02-22T03:33:08.549Z,0.16
2023-02-22T03:33:35.789Z,0.17
2023-02-22T03:33:59.111Z,0.17
2023-02-22T03:34:23.334Z,0.18
2023-02-22T03:34:50.134Z,0.18
2023-02-22T03:35:16.851Z,0.20
2023-02-22T03:35:40.762Z,0.21
2023-02-22T03:36:25.634Z,0.21
2023-02-22T03:36:51.402Z,0.22
2023-02-22T03:37:17.109Z,0.21
2023-02-22T03:37:40.188Z,0.22
2023-02-22T03:38:02.863Z,0.21
2023-02-22T03:38:26.415Z,0.20
2023-02-22T03:38:48.583Z,0.20
2023-02-22T03:39:11.755Z,0.19
2023-02-22T03:39:34.221Z,0.18
2023-02-22T03:39:59.693Z,0.18
2023-02-22T03:40:33.186Z,0.17
2023-02-22T03:40:58.648Z,0.17
2023-02-22T03:41:23.479Z,0.16
2023-02-22T03:41:48.003Z,0.16
2023-02-22T03:42:14.615Z,0.15
2023-02-22T03:42:37.089Z,0.14
2023-02-22T03:43:06.043Z,0.13
2023-02-22T03:43:29.454Z,0.13
2023-02-22T03:43:57.093Z,0.12
2023-02-22T03:44:21.613Z,0.12
2023-02-22T03:44:43.171Z,0.12
2023-02-22T03:45:05.593Z,0.11
2023-02-22T03:45:27.991Z,0.11
2023-02-22T03:45:50.396Z,0.10
2023-02-22T03:46:13.330Z,0.09
2023-02-22T03:46:35.437Z,0.08
2023-02-22T03:46:57.489Z,0.08
2023-02-22T03:47:22.541Z,0.07
2023-02-22T03:47:49.844Z,0.06
2023-02-22T03:48:31.023Z,0.05
2023-02-22T03:48:59.540Z,0.04
2023-02-22T03:49:26.004Z,0.03
2023-02-22T03:49:59.226Z,0.03
2023-02-22T03:50:22.334Z,0.01
2023-02-22T03:50:44.434Z,0.01
2023-02-22T03:51:06.832Z,0.00
2023-02-22T03:51:28.746Z,-0.00
2023-02-22T03:51:52.786Z,-0.01
2023-02-22T03:52:14.881Z,-0.02
2023-02-22T03:52:37.552Z,-0.03
2023-02-22T03:53:00.560Z,-0.04
2023-02-22T03:53:23.683Z,-0.05
2023-02-22T03:53:45.579Z,-0.06
2023-02-22T03:54:07.523Z,-0.07
2023-02-22T03:54:31.810Z,-0.08
2023-02-22T03:54:53.498Z,-0.10
2023-02-22T03:55:17.201Z,-0.10
2023-02-22T03:55:42.456Z,-0.12
2023-02-22T03:56:06.735Z,-0.13
2023-02-22T03:56:35.139Z,-0.14
2023-02-22T03:57:17.258Z,-0.15
2023-02-22T03:57:42.629Z,-0.16
2023-02-22T03:58:06.051Z,-0.17
2023-02-22T03:58:30.188Z,-0.17
2023-02-22T03:58:51.875Z,-0.18
2023-02-22T03:59:14.090Z,-0.18
2023-02-22T03:59:36.604Z,-0.18
2023-02-22T03:59:58.177Z,-0.17
2023-02-22T04:00:22.394Z,-0.17
2023-02-22T04:00:44.907Z,-0.17
2023-02-22T04:01:06.666Z,-0.17
2023-02-22T04:01:28.595Z,-0.17
2023-02-22T04:01:51.875Z,-0.17
2023-02-22T04:02:13.761Z,-0.17
2023-02-22T04:02:35.542Z,-0.17
2023-02-22T04:02:58.105Z,-0.18
2023-02-22T04:03:20.097Z,-0.18
2023-02-22T04:03:42.740Z,-0.18
2023-02-22T04:04:04.733Z,-0.19
2023-02-22T04:04:27.779Z,-0.21
2023-02-22T04:04:50.369Z,-0.22
2023-02-22T04:05:13.657Z,-0.23
2023-02-22T04:05:35.459Z,-0.24
2023-02-22T04:05:58.466Z,-0.24
2023-02-22T04:06:20.141Z,-0.25
2023-02-22T04:06:47.343Z,-0.27
2023-02-22T04:07:11.387Z,-0.27
2023-02-22T04:07:34.388Z,-0.28
2023-02-22T04:07:56.197Z,-0.29
2023-02-22T04:08:17.861Z,-0.30
2023-02-22T04:08:39.657Z,-0.31
2023-02-22T04:09:01.527Z,-0.32
2023-02-22T04:09:23.924Z,-0.33
2023-02-22T04:09:46.157Z,-0.34
2023-02-22T04:10:08.529Z,-0.34
2023-02-22T04:10:33.060Z,-0.34
2023-02-22T04:10:54.843Z,-0.35
2023-02-22T04:11:19.221Z,-0.36
2023-02-22T04:11:40.874Z,-0.35
2023-02-22T04:12:03.675Z,-0.35
2023-02-22T04:12:29.527Z,-0.35
2023-02-22T04:12:55.977Z,-0.35
2023-02-22T04:13:22.532Z,-0.35
2023-02-22T04:13:45.440Z,-0.36
2023-02-22T04:14:08.147Z,-0.37
2023-02-22T04:14:30.443Z,-0.37
2023-02-22T04:14:53.252Z,-0.37
2023-02-22T04:15:15.670Z,-0.37
2023-02-22T04:15:38.530Z,-0.37
2023-02-22T04:16:03.484Z,-0.38
2023-02-22T04:16:25.809Z,-0.38
2023-02-22T04:16:48.102Z,-0.40
2023-02-22T04:17:09.885Z,-0.40
2023-02-22T04:17:31.771Z,-0.41
2023-02-22T04:17:55.201Z,-0.42
2023-02-22T04:18:17.508Z,-0.42
2023-02-22T04:18:40.807Z,-0.44
2023-02-22T04:19:02.810Z,-0.45
2023-02-22T04:19:25.450Z,-0.47
2023-02-22T04:19:47.595Z,-0.47
2023-02-22T04:20:11.220Z,-0.48
2023-02-22T04:20:39.762Z,-0.50
2023-02-22T04:21:08.695Z,-0.52
2023-02-22T04:21:35.401Z,-0.52
2023-02-22T04:21:58.204Z,-0.53
2023-02-22T04:22:21.015Z,-0.54
2023-02-22T04:22:42.901Z,-0.55
2023-02-22T04:23:04.983Z,-0.56
2023-02-22T04:23:26.709Z,-0.57
2023-02-22T04:23:49.170Z,-0.58
2023-02-22T04:24:15.245Z,-0.58
2023-02-22T04:24:38.470Z,-0.59
2023-02-22T04:25:00.660Z,-0.59
2023-02-22T04:25:23.084Z,-0.58
2023-02-22T04:25:46.171Z,-0.58
2023-02-22T04:26:10.409Z,-0.57
2023-02-22T04:26:32.820Z,-0.57
2023-02-22T04:26:56.030Z,-0.56
2023-02-22T04:27:18.931Z,-0.56
2023-02-22T04:27:41.253Z,-0.56
2023-02-22T04:28:04.340Z,-0.55
2023-02-22T04:28:37.506Z,-0.54
2023-02-22T04:29:09.285Z,-0.53
2023-02-22T04:29:34.035Z,-0.51
2023-02-22T04:29:58.289Z,-0.51
2023-02-22T04:30:20.376Z,-0.51
2023-02-22T04:30:45.322Z,-0.50
2023-02-22T04:31:10.215Z,-0.50
2023-02-22T04:31:33.216Z,-0.51
2023-02-22T04:31:55.207Z,-0.51
2023-02-22T04:32:16.968Z,-0.52
2023-02-22T04:32:38.953Z,-0.53
2023-02-22T04:33:00.806Z,-0.54
2023-02-22T04:33:22.447Z,-0.54
2023-02-22T04:33:44.200Z,-0.55
2023-02-22T04:34:09.180Z,-0.56
2023-02-22T04:34:33.703Z,-0.56
2023-02-22T04:34:55.382Z,-0.56
2023-02-22T04:35:17.788Z,-0.57
2023-02-22T04:35:39.463Z,-0.58
2023-02-22T04:36:01.250Z,-0.57
2023-02-22T04:36:27.030Z,-0.57
2023-02-22T04:36:48.805Z,-0.56
2023-02-22T04:37:11.820Z,-0.56
2023-02-22T04:37:34.138Z,-0.55
2023-02-22T04:37:58.168Z,-0.54
2023-02-22T04:38:19.954Z,-0.53
2023-02-22T04:38:42.840Z,-0.51
2023-02-22T04:39:05.042Z,-0.51
2023-02-22T04:39:27.774Z,-0.50
2023-02-22T04:39:49.470Z,-0.48
2023-02-22T04:40:12.230Z,-0.48
2023-02-22T04:40:34.631Z,-0.47
2023-02-22T04:40:57.650Z,-0.46
2023-02-22T04:41:20.048Z,-0.46
2023-02-22T04:41:42.026Z,-0.46
2023-02-22T04:42:04.526Z,-0.46
2023-02-22T04:42:27.175Z,-0.46
2023-02-22T04:42:49.935Z,-0.47
2023-02-22T04:43:11.930Z,-0.48
2023-02-22T04:43:34.424Z,-0.49
2023-02-22T04:44:03.775Z,-0.51
2023-02-22T04:44:26.993Z,-0.51
2023-02-22T04:44:48.886Z,-0.52
2023-02-22T04:45:11.002Z,-0.52
2023-02-22T04:45:33.577Z,-0.52
2023-02-22T04:45:56.489Z,-0.54
2023-02-22T04:46:20.569Z,-0.54
2023-02-22T04:46:42.478Z,-0.54
2023-02-22T04:47:06.647Z,-0.55
2023-02-22T04:47:28.637Z,-0.55
2023-02-22T04:47:51.481Z,-0.56
2023-02-22T04:48:13.227Z,-0.55
2023-02-22T04:48:35.725Z,-0.55
2023-02-22T04:48:58.124Z,-0.55
2023-02-22T04:49:23.303Z,-0.54
2023-02-22T04:49:46.908Z,-0.54
2023-02-22T04:50:09.104Z,-0.53
2023-02-22T04:50:30.992Z,-0.52
2023-02-22T04:50:52.773Z,-0.52
2023-02-22T04:51:14.983Z,-0.50
2023-02-22T04:51:47.903Z,-0.49
2023-02-22T04:52:10.914Z,-0.49
2023-02-22T04:52:33.821Z,-0.48
2023-02-22T04:52:55.911Z,-0.47
2023-02-22T04:53:18.004Z,-0.47
2023-02-22T04:53:39.820Z,-0.47
2023-02-22T04:54:02.394Z,-0.46
2023-02-22T04:54:28.367Z,-0.45
2023-02-22T04:54:50.357Z,-0.45
2023-02-22T04:55:13.499Z,-0.44
2023-02-22T04:55:35.183Z,-0.45
2023-02-22T04:55:56.796Z,-0.45
2023-02-22T04:56:18.619Z,-0.45
2023-02-22T04:56:40.600Z,-0.47
2023-02-22T04:57:07.202Z,-0.47
2023-02-22T04:57:29.189Z,-0.47
2023-02-22T04:57:50.876Z,-0.48
2023-02-22T04:58:12.555Z,-0.50
2023-02-22T04:58:35.872Z,-0.50
2023-02-22T04:58:57.761Z,-0.51
2023-02-22T04:59:19.550Z,-0.51
2023-02-22T04:59:47.400Z,-0.51
2023-02-22T05:00:10.888Z,-0.53
2023-02-22T05:00:33.315Z,-0.53
2023-02-22T05:00:57.337Z,-0.54
2023-02-22T05:01:19.613Z,-0.54
2023-02-22T05:01:41.852Z,-0.55
2023-02-22T05:02:03.703Z,-0.55
2023-02-22T05:02:28.218Z,-0.55
2023-02-22T05:02:50.206Z,-0.55
2023-02-22T05:03:11.911Z,-0.55
2023-02-22T05:03:33.903Z,-0.54
2023-02-22T05:03:56.132Z,-0.54
2023-02-22T05:04:18.184Z,-0.53
2023-02-22T05:04:41.747Z,-0.52
2023-02-22T05:05:04.002Z,-0.52
2023-02-22T05:05:26.093Z,-0.51
2023-02-22T05:05:47.879Z,-0.50
2023-02-22T05:06:11.743Z,-0.50
2023-02-22T05:06:33.569Z,-0.49
2023-02-22T05:06:55.218Z,-0.48
2023-02-22T05:07:17.087Z,-0.48
2023-02-22T05:07:40.998Z,-0.47
2023-02-22T05:08:09.106Z,-0.47
2023-02-22T05:08:31.725Z,-0.46
2023-02-22T05:08:54.635Z,-0.46
2023-02-22T05:09:16.934Z,-0.46
2023-02-22T05:09:38.921Z,-0.47
2023-02-22T05:10:02.440Z,-0.47
2023-02-22T05:10:24.430Z,-0.47
2023-02-22T05:10:46.525Z,-0.48
2023-02-22T05:11:09.241Z,-0.49
2023-02-22T05:11:31.092Z,-0.49
2023-02-22T05:11:53.346Z,-0.50
2023-02-22T05:12:15.704Z,-0.51
2023-02-22T05:12:37.455Z,-0.51
2023-02-22T05:12:59.174Z,-0.52
2023-02-22T05:13:20.873Z,-0.52
2023-02-22T05:13:43.193Z,-0.52
2023-02-22T05:14:04.838Z,-0.53
2023-02-22T05:14:29.094Z,-0.53
2023-02-22T05:14:56.289Z,-0.53
2023-02-22T05:15:19.971Z,-0.54
2023-02-22T05:15:42.064Z,-0.54
2023-02-22T05:16:04.748Z,-0.54
2023-02-22T05:16:28.526Z,-0.54
2023-02-22T05:16:50.212Z,-0.54
2023-02-22T05:17:12.075Z,-0.54
2023-02-22T05:17:34.247Z,-0.53
2023-02-22T05:17:55.971Z,-0.53
2023-02-22T05:18:17.887Z,-0.52
2023-02-22T05:18:40.097Z,-0.51
2023-02-22T05:19:01.672Z,-0.51
2023-02-22T05:19:23.764Z,-0.50
2023-02-22T05:19:47.142Z,-0.49
2023-02-22T05:20:09.951Z,-0.48
2023-02-22T05:20:33.399Z,-0.48
2023-02-22T05:20:55.361Z,-0.47
2023-02-22T05:21:17.534Z,-0.46
2023-02-22T05:21:39.952Z,-0.45
2023-02-22T05:22:01.530Z,-0.44
2023-02-22T05:22:23.931Z,-0.44
2023-02-22T05:22:45.437Z,-0.44